sensor_id;sensor_type;location;lat;lon;timestamp;pressure;altitude;pressure_sealevel;temperature;humidity
56414;BME280;42318;48.452;19.526;2022-11-15T00:04:11;98772.72;;;18.72;60.83
56414;BME280;42318;48.452;19.526;2022-11-15T00:11:42;98769.69;;;18.69;60.86
56414;BME280;42318;48.452;19.526;2022-11-15T00:19:12;98770.38;;;18.64;60.52
56414;BME280;42318;48.452;19.526;2022-11-15T00:26:44;98767.50;;;18.59;60.88
56414;BME280;42318;48.452;19.526;2022-11-15T00:34:15;98757.38;;;18.55;60.83
56414;BME280;42318;48.452;19.526;2022-11-15T00:41:46;98754.91;;;18.53;61.14
56414;BME280;42318;48.452;19.526;2022-11-15T00:49:16;98760.00;;;18.49;60.88
56414;BME280;42318;48.452;19.526;2022-11-15T00:56:47;98736.44;;;18.38;61.05
56414;BME280;42318;48.452;19.526;2022-11-15T01:04:18;98738.06;;;18.39;61.05
56414;BME280;42318;48.452;19.526;2022-11-15T01:11:49;98738.31;;;18.38;61.30
56414;BME280;42318;48.452;19.526;2022-11-15T01:19:19;98726.06;;;18.35;61.39
56414;BME280;42318;48.452;19.526;2022-11-15T01:26:50;98714.38;;;18.35;60.85
56414;BME280;42318;48.452;19.526;2022-11-15T01:34:21;98690.94;;;18.29;60.84
56414;BME280;42318;48.452;19.526;2022-11-15T01:41:52;98707.53;;;18.32;61.21
56414;BME280;42318;48.452;19.526;2022-11-15T01:49:24;98704.00;;;18.32;61.07
56414;BME280;42318;48.452;19.526;2022-11-15T01:57:06;98692.13;;;18.21;61.15
56414;BME280;42318;48.452;19.526;2022-11-15T02:04:45;98700.84;;;18.23;61.29
56414;BME280;42318;48.452;19.526;2022-11-15T02:12:19;98693.78;;;18.22;61.10
56414;BME280;42318;48.452;19.526;2022-11-15T02:20:13;98695.03;;;18.19;60.92
56414;BME280;42318;48.452;19.526;2022-11-15T02:36:01;98696.34;;;18.17;61.36
56414;BME280;42318;48.452;19.526;2022-11-15T02:43:47;98689.63;;;18.19;61.33
56414;BME280;42318;48.452;19.526;2022-11-15T02:51:28;98687.16;;;18.18;61.20
56414;BME280;42318;48.452;19.526;2022-11-15T03:07:14;98678.66;;;18.14;60.99
56414;BME280;42318;48.452;19.526;2022-11-15T03:14:53;98674.91;;;18.15;61.29
56414;BME280;42318;48.452;19.526;2022-11-15T03:22:29;98662.88;;;18.11;61.54
56414;BME280;42318;48.452;19.526;2022-11-15T03:30:04;98660.16;;;18.11;61.53
56414;BME280;42318;48.452;19.526;2022-11-15T03:37:48;98655.56;;;18.12;61.44
56414;BME280;42318;48.452;19.526;2022-11-15T03:45:29;98653.91;;;18.11;61.90
56414;BME280;42318;48.452;19.526;2022-11-15T03:53:02;98646.97;;;18.03;61.71
56414;BME280;42318;48.452;19.526;2022-11-15T04:00:33;98647.31;;;18.07;61.65
56414;BME280;42318;48.452;19.526;2022-11-15T04:08:04;98646.75;;;18.05;61.82
56414;BME280;42318;48.452;19.526;2022-11-15T04:15:35;98640.50;;;18.04;61.62
56414;BME280;42318;48.452;19.526;2022-11-15T04:23:09;98622.56;;;18.03;61.83
56414;BME280;42318;48.452;19.526;2022-11-15T04:30:58;98616.34;;;18.03;61.80
56414;BME280;42318;48.452;19.526;2022-11-15T04:38:29;98610.31;;;18.01;61.68
56414;BME280;42318;48.452;19.526;2022-11-15T04:46:00;98590.28;;;18.02;61.80
56414;BME280;42318;48.452;19.526;2022-11-15T04:53:31;98585.94;;;18.01;61.58
56414;BME280;42318;48.452;19.526;2022-11-15T05:01:09;98566.66;;;17.85;61.65
56414;BME280;42318;48.452;19.526;2022-11-15T05:08:40;98562.16;;;17.91;61.76
56414;BME280;42318;48.452;19.526;2022-11-15T05:16:11;98573.34;;;17.95;61.79
56414;BME280;42318;48.452;19.526;2022-11-15T05:23:41;98566.25;;;17.94;61.70
56414;BME280;42318;48.452;19.526;2022-11-15T05:31:14;98558.13;;;17.94;61.80
56414;BME280;42318;48.452;19.526;2022-11-15T05:38:46;98560.84;;;17.94;62.42
56414;BME280;42318;48.452;19.526;2022-11-15T05:46:18;98551.06;;;17.93;62.54
56414;BME280;42318;48.452;19.526;2022-11-15T05:53:51;98542.94;;;17.93;62.60
56414;BME280;42318;48.452;19.526;2022-11-15T06:01:23;98542.09;;;17.92;62.73
56414;BME280;42318;48.452;19.526;2022-11-15T06:08:55;98546.22;;;17.95;62.80
56414;BME280;42318;48.452;19.526;2022-11-15T06:16:26;98548.13;;;17.94;62.65
56414;BME280;42318;48.452;19.526;2022-11-15T06:23:56;98546.47;;;17.93;62.60
56414;BME280;42318;48.452;19.526;2022-11-15T06:31:27;98550.81;;;17.94;62.83
56414;BME280;42318;48.452;19.526;2022-11-15T06:38:58;98556.50;;;17.93;62.68
56414;BME280;42318;48.452;19.526;2022-11-15T06:46:31;98556.50;;;17.93;62.74
56414;BME280;42318;48.452;19.526;2022-11-15T06:54:02;98575.47;;;17.93;63.14
56414;BME280;42318;48.452;19.526;2022-11-15T07:01:33;98573.81;;;17.92;63.49
56414;BME280;42318;48.452;19.526;2022-11-15T07:09:03;98561.09;;;17.92;63.34
56414;BME280;42318;48.452;19.526;2022-11-15T07:16:36;98581.72;;;17.93;63.54
56414;BME280;42318;48.452;19.526;2022-11-15T07:24:06;98546.72;;;17.92;63.53
56414;BME280;42318;48.452;19.526;2022-11-15T07:31:38;98533.06;;;17.86;63.25
56414;BME280;42318;48.452;19.526;2022-11-15T07:39:09;98541.28;;;17.92;63.02
56414;BME280;42318;48.452;19.526;2022-11-15T07:46:40;98545.06;;;17.91;63.29
56414;BME280;42318;48.452;19.526;2022-11-15T07:54:11;98533.97;;;17.92;63.09
56414;BME280;42318;48.452;19.526;2022-11-15T08:01:41;98527.16;;;17.89;63.21
56414;BME280;42318;48.452;19.526;2022-11-15T08:09:12;98526.09;;;17.91;63.19
56414;BME280;42318;48.452;19.526;2022-11-15T08:16:43;98518.78;;;17.91;63.63
56414;BME280;42318;48.452;19.526;2022-11-15T08:24:14;98516.88;;;17.92;63.18
56414;BME280;42318;48.452;19.526;2022-11-15T08:31:45;98498.16;;;17.90;63.33
56414;BME280;42318;48.452;19.526;2022-11-15T08:39:16;98492.50;;;17.92;63.43
56414;BME280;42318;48.452;19.526;2022-11-15T08:46:46;98487.91;;;17.92;63.42
56414;BME280;42318;48.452;19.526;2022-11-15T08:54:17;98487.66;;;17.94;63.26
56414;BME280;42318;48.452;19.526;2022-11-15T09:01:48;98477.88;;;17.93;63.55
56414;BME280;42318;48.452;19.526;2022-11-15T09:09:19;98471.16;;;17.95;63.33
56414;BME280;42318;48.452;19.526;2022-11-15T09:16:50;98466.53;;;17.96;63.36
56414;BME280;42318;48.452;19.526;2022-11-15T09:24:20;98453.72;;;17.91;63.50
56414;BME280;42318;48.452;19.526;2022-11-15T09:31:52;98456.03;;;17.99;63.24
56414;BME280;42318;48.452;19.526;2022-11-15T09:39:23;98449.78;;;17.99;63.30
56414;BME280;42318;48.452;19.526;2022-11-15T09:55:05;98431.16;;;18.02;63.16
56414;BME280;42318;48.452;19.526;2022-11-15T10:10:35;98411.00;;;17.98;63.42
56414;BME280;42318;48.452;19.526;2022-11-15T10:18:39;98408.06;;;18.00;63.27
56414;BME280;42318;48.452;19.526;2022-11-15T10:26:18;98394.16;;;17.96;63.44
56414;BME280;42318;48.452;19.526;2022-11-15T10:33:49;98375.34;;;17.89;63.32
56414;BME280;42318;48.452;19.526;2022-11-15T10:49:21;98376.03;;;17.97;63.77
56414;BME280;42318;48.452;19.526;2022-11-15T10:56:55;98374.38;;;17.96;63.71
56414;BME280;42318;48.452;19.526;2022-11-15T11:04:26;98361.06;;;17.94;63.73
56414;BME280;42318;48.452;19.526;2022-11-15T11:11:57;98335.28;;;17.92;63.91
56414;BME280;42318;48.452;19.526;2022-11-15T11:35:11;98329.59;;;17.93;63.81
56414;BME280;42318;48.452;19.526;2022-11-15T11:50:15;98314.16;;;17.94;64.78
56414;BME280;42318;48.452;19.526;2022-11-15T12:05:33;98294.13;;;17.95;65.81
56414;BME280;42318;48.452;19.526;2022-11-15T12:13:13;98286.81;;;17.95;66.05
56414;BME280;42318;48.452;19.526;2022-11-15T12:21:02;98281.97;;;17.97;66.29
56414;BME280;42318;48.452;19.526;2022-11-15T12:28:46;98267.59;;;17.97;66.41
56414;BME280;42318;48.452;19.526;2022-11-15T12:43:51;98242.63;;;17.95;65.88
56414;BME280;42318;48.452;19.526;2022-11-15T13:22:46;98205.72;;;17.94;65.60
56414;BME280;42318;48.452;19.526;2022-11-15T13:30:31;98216.34;;;17.95;65.76
56414;BME280;42318;48.452;19.526;2022-11-15T13:38:04;98213.38;;;17.97;66.00
56414;BME280;42318;48.452;19.526;2022-11-15T13:45:35;98206.31;;;17.96;65.68
56414;BME280;42318;48.452;19.526;2022-11-15T13:53:06;98187.00;;;17.92;65.75
56414;BME280;42318;48.452;19.526;2022-11-15T14:00:42;98188.91;;;17.92;65.81
56414;BME280;42318;48.452;19.526;2022-11-15T14:08:23;98178.88;;;17.92;65.84
56414;BME280;42318;48.452;19.526;2022-11-15T14:15:54;98166.41;;;17.91;65.99
56414;BME280;42318;48.452;19.526;2022-11-15T14:23:42;98143.31;;;17.88;65.95
56414;BME280;42318;48.452;19.526;2022-11-15T14:31:13;98142.25;;;17.89;65.96
56414;BME280;42318;48.452;19.526;2022-11-15T14:38:44;98125.34;;;17.82;66.04
56414;BME280;42318;48.452;19.526;2022-11-15T14:46:16;98128.63;;;17.84;66.13
56414;BME280;42318;48.452;19.526;2022-11-15T14:53:47;98117.78;;;17.84;66.18
56414;BME280;42318;48.452;19.526;2022-11-15T15:01:24;98105.88;;;17.85;66.14
56414;BME280;42318;48.452;19.526;2022-11-15T15:08:55;98092.84;;;17.82;66.10
56414;BME280;42318;48.452;19.526;2022-11-15T15:16:26;98095.03;;;17.85;66.21
56414;BME280;42318;48.452;19.526;2022-11-15T15:23:57;98099.06;;;17.83;66.34
56414;BME280;42318;48.452;19.526;2022-11-15T15:31:28;98087.41;;;17.82;66.38
56414;BME280;42318;48.452;19.526;2022-11-15T15:38:59;98065.00;;;17.70;66.16
56414;BME280;42318;48.452;19.526;2022-11-15T15:46:29;98080.34;;;17.81;66.34
56414;BME280;42318;48.452;19.526;2022-11-15T15:54:00;98075.91;;;17.75;66.51
56414;BME280;42318;48.452;19.526;2022-11-15T16:01:31;98078.72;;;17.80;66.50
56414;BME280;42318;48.452;19.526;2022-11-15T16:09:02;98074.38;;;17.79;66.59
56414;BME280;42318;48.452;19.526;2022-11-15T16:16:34;98071.97;;;17.83;66.74
56414;BME280;42318;48.452;19.526;2022-11-15T16:24:05;98062.22;;;17.82;66.40
56414;BME280;42318;48.452;19.526;2022-11-15T16:31:36;98067.06;;;17.80;66.41
56414;BME280;42318;48.452;19.526;2022-11-15T16:39:10;98060.81;;;17.79;66.34
56414;BME280;42318;48.452;19.526;2022-11-15T16:46:43;98054.31;;;17.80;66.35
56414;BME280;42318;48.452;19.526;2022-11-15T16:54:18;98039.13;;;17.79;66.26
56414;BME280;42318;48.452;19.526;2022-11-15T17:01:49;98022.78;;;17.74;66.13
56414;BME280;42318;48.452;19.526;2022-11-15T17:09:21;98025.84;;;17.78;66.25
56414;BME280;42318;48.452;19.526;2022-11-15T17:16:56;98015.97;;;17.72;65.97
56414;BME280;42318;48.452;19.526;2022-11-15T17:24:27;98020.41;;;17.78;66.45
56414;BME280;42318;48.452;19.526;2022-11-15T17:31:58;98007.69;;;17.78;67.00
56414;BME280;42318;48.452;19.526;2022-11-15T17:39:29;97996.84;;;17.78;66.74
56414;BME280;42318;48.452;19.526;2022-11-15T17:46:59;97999.56;;;17.78;66.88
56414;BME280;42318;48.452;19.526;2022-11-15T17:54:30;97979.44;;;17.74;66.77
56414;BME280;42318;48.452;19.526;2022-11-15T18:02:01;97984.13;;;17.79;66.68
56414;BME280;42318;48.452;19.526;2022-11-15T18:09:32;97983.31;;;17.78;66.62
56414;BME280;42318;48.452;19.526;2022-11-15T18:17:03;97972.63;;;17.72;66.37
56414;BME280;42318;48.452;19.526;2022-11-15T18:24:34;97974.34;;;17.78;66.53
56414;BME280;42318;48.452;19.526;2022-11-15T18:32:07;97967.53;;;17.75;66.61
56414;BME280;42318;48.452;19.526;2022-11-15T18:39:41;97971.66;;;17.78;66.69
56414;BME280;42318;48.452;19.526;2022-11-15T18:47:12;97960.22;;;17.76;66.70
56414;BME280;42318;48.452;19.526;2022-11-15T18:54:43;97970.78;;;17.77;66.70
56414;BME280;42318;48.452;19.526;2022-11-15T19:02:14;97967.03;;;17.78;66.92
56414;BME280;42318;48.452;19.526;2022-11-15T19:09:45;97952.91;;;17.76;66.75
56414;BME280;42318;48.452;19.526;2022-11-15T19:17:16;97943.94;;;17.76;66.72
56414;BME280;42318;48.452;19.526;2022-11-15T19:24:46;97940.16;;;17.77;66.75
56414;BME280;42318;48.452;19.526;2022-11-15T19:32:17;97941.59;;;17.79;66.89
56414;BME280;42318;48.452;19.526;2022-11-15T19:39:48;97934.31;;;17.85;66.60
56414;BME280;42318;48.452;19.526;2022-11-15T19:47:19;97921.13;;;17.94;66.60
56414;BME280;42318;48.452;19.526;2022-11-15T19:54:49;97909.81;;;18.02;66.12
56414;BME280;42318;48.452;19.526;2022-11-15T20:02:20;97911.50;;;18.08;65.79
56414;BME280;42318;48.452;19.526;2022-11-15T20:09:51;97913.97;;;18.09;65.66
56414;BME280;42318;48.452;19.526;2022-11-15T20:17:23;97899.28;;;18.05;65.64
56414;BME280;42318;48.452;19.526;2022-11-15T20:24:54;97914.81;;;18.15;65.62
56414;BME280;42318;48.452;19.526;2022-11-15T20:32:25;97904.53;;;18.17;65.44
56414;BME280;42318;48.452;19.526;2022-11-15T20:39:57;97890.47;;;18.20;65.30
56414;BME280;42318;48.452;19.526;2022-11-15T20:47:29;97882.91;;;18.22;65.21
56414;BME280;42318;48.452;19.526;2022-11-15T20:55:00;97869.34;;;18.22;65.23
56414;BME280;42318;48.452;19.526;2022-11-15T21:02:31;97845.00;;;18.27;65.41
56414;BME280;42318;48.452;19.526;2022-11-15T21:10:02;97839.31;;;18.29;64.91
56414;BME280;42318;48.452;19.526;2022-11-15T21:17:52;97849.06;;;18.30;65.23
56414;BME280;42318;48.452;19.526;2022-11-15T21:25:22;97830.06;;;18.25;65.25
56414;BME280;42318;48.452;19.526;2022-11-15T21:32:53;97821.69;;;18.31;65.43
56414;BME280;42318;48.452;19.526;2022-11-15T21:40:24;97827.69;;;18.33;65.48
56414;BME280;42318;48.452;19.526;2022-11-15T21:47:55;97814.66;;;18.35;65.89
56414;BME280;42318;48.452;19.526;2022-11-15T21:55:26;97811.13;;;18.35;65.84
56414;BME280;42318;48.452;19.526;2022-11-15T22:02:57;97801.94;;;18.36;66.31
56414;BME280;42318;48.452;19.526;2022-11-15T22:10:28;97804.63;;;18.36;66.50
56414;BME280;42318;48.452;19.526;2022-11-15T22:17:58;97801.66;;;18.37;65.86
56414;BME280;42318;48.452;19.526;2022-11-15T22:25:30;97777.81;;;18.39;65.79
56414;BME280;42318;48.452;19.526;2022-11-15T22:33:00;97759.38;;;18.41;65.53
56414;BME280;42318;48.452;19.526;2022-11-15T22:40:31;97751.50;;;18.40;65.37
56414;BME280;42318;48.452;19.526;2022-11-15T22:48:02;97735.22;;;18.40;65.45
56414;BME280;42318;48.452;19.526;2022-11-15T22:55:33;97731.44;;;18.41;65.29
56414;BME280;42318;48.452;19.526;2022-11-15T23:03:04;97713.25;;;18.36;65.11
56414;BME280;42318;48.452;19.526;2022-11-15T23:10:36;97712.72;;;18.39;65.19
56414;BME280;42318;48.452;19.526;2022-11-15T23:18:26;97700.22;;;18.38;65.00
56414;BME280;42318;48.452;19.526;2022-11-15T23:25:58;97695.88;;;18.32;65.11
56414;BME280;42318;48.452;19.526;2022-11-15T23:33:29;97697.25;;;18.40;64.94
56414;BME280;42318;48.452;19.526;2022-11-15T23:41:19;97700.78;;;18.40;65.10
56414;BME280;42318;48.452;19.526;2022-11-15T23:48:50;97691.00;;;18.39;64.72
56414;BME280;42318;48.452;19.526;2022-11-15T23:56:21;97684.22;;;18.37;64.35
